createdAt,value
2019-05-29T00:02:29.431Z,0.56
2019-05-29T00:07:38.359Z,0.52
2019-05-29T00:12:47.283Z,0.71
2019-05-29T00:17:56.223Z,0.77
2019-05-29T00:23:06.328Z,0.33
2019-05-29T00:28:14.752Z,0.40
2019-05-29T00:33:22.042Z,0.49
2019-05-29T00:38:30.975Z,0.71
2019-05-29T00:43:39.978Z,0.62
2019-05-29T00:48:48.912Z,0.65
2019-05-29T00:53:57.836Z,0.63
2019-05-29T00:59:06.795Z,0.67
2019-05-29T01:04:15.768Z,0.66
2019-05-29T01:09:24.715Z,0.82
2019-05-29T01:14:47.243Z,1.00
2019-05-29T01:19:42.426Z,0.62
2019-05-29T01:24:51.354Z,0.69
2019-05-29T01:30:00.383Z,0.79
2019-05-29T01:35:09.319Z,0.75
2019-05-29T01:40:23.150Z,0.79
2019-05-29T01:45:27.642Z,0.68
2019-05-29T01:50:35.214Z,0.70
2019-05-29T01:55:44.127Z,0.86
2019-05-29T02:00:53.063Z,0.55
2019-05-29T02:06:01.994Z,0.83
2019-05-29T02:11:10.918Z,0.57
2019-05-29T02:16:20.675Z,0.71
2019-05-29T02:21:28.520Z,0.54
2019-05-29T02:26:37.395Z,0.74
2019-05-29T02:31:46.306Z,0.70
2019-05-29T02:36:56.615Z,0.80
2019-05-29T02:42:03.755Z,0.73
2019-05-29T02:47:12.686Z,0.78
2019-05-29T02:52:21.962Z,0.76
2019-05-29T02:57:30.972Z,0.41
2019-05-29T03:02:38.579Z,0.65
2019-05-29T03:07:47.583Z,0.68
2019-05-29T03:12:56.505Z,0.69
2019-05-29T03:18:05.503Z,0.44
2019-05-29T03:23:14.432Z,0.66
2019-05-29T03:28:21.988Z,0.46
2019-05-29T03:33:38.056Z,0.61
2019-05-29T03:38:39.360Z,0.50
2019-05-29T03:43:48.428Z,0.65
2019-05-29T03:48:57.372Z,0.51
2019-05-29T03:54:06.375Z,0.50
2019-05-29T03:59:15.296Z,0.61
2019-05-29T04:04:24.302Z,0.72
2019-05-29T04:09:33.415Z,0.96
2019-05-29T04:14:42.163Z,0.62
2019-05-29T04:19:51.105Z,0.51
2019-05-29T04:25:00.073Z,0.68
2019-05-29T04:30:09.030Z,0.88
2019-05-29T04:35:17.959Z,1.23
2019-05-29T04:40:28.505Z,0.92
2019-05-29T04:45:37.558Z,0.88
2019-05-29T04:50:43.927Z,0.99
2019-05-29T04:55:52.947Z,0.95
2019-05-29T05:01:01.892Z,1.01
2019-05-29T05:06:10.839Z,1.19
2019-05-29T05:11:19.830Z,1.03
2019-05-29T05:16:29.724Z,1.19
2019-05-29T05:21:38.090Z,1.32
2019-05-29T05:26:45.671Z,1.28
2019-05-29T05:31:54.644Z,1.40
2019-05-29T05:37:03.623Z,1.09
2019-05-29T05:42:12.573Z,1.51
2019-05-29T05:47:21.738Z,1.34
2019-05-29T05:52:31.195Z,1.40
2019-05-29T05:57:39.743Z,1.29
2019-05-29T06:02:47.787Z,1.47
2019-05-29T06:07:56.708Z,1.14
2019-05-29T06:13:05.655Z,1.30
2019-05-29T06:18:21.090Z,1.08
2019-05-29T06:23:23.095Z,0.91
2019-05-29T06:28:33.012Z,1.13
2019-05-29T06:33:41.514Z,1.04
2019-05-29T06:38:48.927Z,1.02
2019-05-29T06:43:57.864Z,0.98
2019-05-29T06:49:06.887Z,0.90
2019-05-29T06:54:15.792Z,0.98
2019-05-29T06:59:24.815Z,1.04
2019-05-29T07:04:33.741Z,1.03
2019-05-29T07:09:43.086Z,1.08
2019-05-29T07:14:51.906Z,1.52
2019-05-29T07:20:03.704Z,1.31
2019-05-29T07:25:09.359Z,1.37
2019-05-29T07:30:18.288Z,1.32
2019-05-29T07:35:27.231Z,1.34
2019-05-29T07:40:36.184Z,1.50
2019-05-29T07:45:46.111Z,1.53
2019-05-29T07:51:06.345Z,1.71
2019-05-29T07:56:02.140Z,1.64
2019-05-29T08:01:13.669Z,1.04
2019-05-29T08:06:19.549Z,1.35
2019-05-29T08:11:28.472Z,1.28
2019-05-29T08:16:37.526Z,1.11
2019-05-29T08:21:46.564Z,1.13
2019-05-29T08:26:55.447Z,0.78
2019-05-29T08:32:04.382Z,1.07
2019-05-29T08:37:13.407Z,1.06
2019-05-29T08:42:23.786Z,0.92
2019-05-29T08:47:30.864Z,0.82
2019-05-29T08:52:39.779Z,1.12
2019-05-29T08:57:48.714Z,1.16
2019-05-29T09:02:57.724Z,1.01
2019-05-29T09:08:06.676Z,1.11
2019-05-29T09:13:15.631Z,1.04
2019-05-29T09:18:25.665Z,0.89
2019-05-29T09:23:33.079Z,0.99
2019-05-29T09:28:42.023Z,1.00
2019-05-29T09:33:50.986Z,1.12
2019-05-29T09:38:59.901Z,1.10
2019-05-29T09:44:09.221Z,1.26
2019-05-29T09:49:18.379Z,1.31
2019-05-29T09:54:27.126Z,1.41
2019-05-29T09:59:36.204Z,1.02
2019-05-29T10:04:45.380Z,1.13
2019-05-29T10:09:54.983Z,1.11
2019-05-29T10:15:04.339Z,0.99
2019-05-29T10:20:11.710Z,0.88
2019-05-29T10:25:20.668Z,0.92
2019-05-29T10:30:29.684Z,1.03
2019-05-29T10:35:38.643Z,1.17
2019-05-29T10:40:57.132Z,0.91
2019-05-29T10:45:56.272Z,0.96
2019-05-29T10:51:05.202Z,0.93
2019-05-29T10:56:14.179Z,1.09
2019-05-29T11:01:23.123Z,0.87
2019-05-29T11:06:32.179Z,0.92
2019-05-29T11:11:41.103Z,0.88
2019-05-29T11:16:50.935Z,0.92
2019-05-29T11:22:01.726Z,1.03
2019-05-29T11:27:07.120Z,1.02
2019-05-29T11:32:16.086Z,1.01
2019-05-29T11:37:25.041Z,0.97
2019-05-29T11:42:33.974Z,1.00
2019-05-29T11:47:42.914Z,1.01
2019-05-29T11:52:52.915Z,1.23
2019-05-29T11:57:51.931Z,1.16
2019-05-29T12:03:01.898Z,1.28
2019-05-29T12:08:10.860Z,1.22
2019-05-29T12:13:20.923Z,1.36
2019-05-29T12:18:23.609Z,1.12
2019-05-29T12:23:28.368Z,1.21
2019-05-29T12:28:37.539Z,1.17
2019-05-29T12:33:46.498Z,1.10
2019-05-29T12:38:55.552Z,0.95
2019-05-29T12:44:04.495Z,0.85
2019-05-29T12:49:13.624Z,0.85
2019-05-29T12:54:22.563Z,0.91
2019-05-29T12:59:31.543Z,1.14
2019-05-29T13:05:05.943Z,1.14
2019-05-29T13:09:49.113Z,1.15
2019-05-29T13:14:58.563Z,1.14
2019-05-29T13:20:20.197Z,1.26
2019-05-29T13:25:15.548Z,1.51
2019-05-29T13:30:24.525Z,1.15
2019-05-29T13:35:33.471Z,1.19
2019-05-29T13:40:42.717Z,1.37
2019-05-29T13:45:51.473Z,1.43
2019-05-29T13:51:01.592Z,1.51
2019-05-29T13:56:08.901Z,1.60
2019-05-29T14:01:17.884Z,1.55
2019-05-29T14:06:26.835Z,1.45
2019-05-29T14:11:35.875Z,1.48
2019-05-29T14:16:44.805Z,1.59
2019-05-29T14:21:53.821Z,1.43
2019-05-29T14:27:03.385Z,1.84
2019-05-29T14:32:11.223Z,1.71
2019-05-29T14:37:20.155Z,1.68
2019-05-29T14:42:29.117Z,1.33
2019-05-29T14:47:38.011Z,1.50
2019-05-29T14:52:46.999Z,1.73
2019-05-29T14:57:56.096Z,1.63
2019-05-29T15:03:05.265Z,1.49
2019-05-29T15:08:14.231Z,1.76
2019-05-29T15:13:22.956Z,1.70
2019-05-29T15:18:31.902Z,1.26
2019-05-29T15:23:40.853Z,1.62
2019-05-29T15:28:49.783Z,1.34
2019-05-29T15:33:58.779Z,1.51
2019-05-29T15:39:08.507Z,1.59
2019-05-29T15:44:17.255Z,1.97
2019-05-29T15:49:24.766Z,1.65
2019-05-29T15:54:33.752Z,1.46
2019-05-29T15:59:42.691Z,1.79
2019-05-29T16:04:51.642Z,1.67
2019-05-29T16:10:00.553Z,1.55
2019-05-29T16:15:11.039Z,2.02
2019-05-29T16:20:18.632Z,1.72
2019-05-29T16:25:39.309Z,2.06
2019-05-29T16:30:35.017Z,2.29
2019-05-29T16:35:44.006Z,1.94
2019-05-29T16:40:52.924Z,2.07
2019-05-29T16:46:01.944Z,2.12
2019-05-29T16:51:10.869Z,2.34
2019-05-29T16:56:21.124Z,2.11
2019-05-29T17:01:28.332Z,1.85
2019-05-29T17:06:37.283Z,2.23
2019-05-29T17:11:46.235Z,2.16
2019-05-29T17:16:55.205Z,2.35
2019-05-29T17:22:04.139Z,2.08
2019-05-29T17:27:13.091Z,2.26
2019-05-29T17:32:23.130Z,1.96
2019-05-29T17:37:30.540Z,2.06
2019-05-29T17:42:39.504Z,1.75
2019-05-29T17:47:48.470Z,1.86
2019-05-29T17:52:57.415Z,2.09
2019-05-29T17:58:06.375Z,1.67
2019-05-29T18:03:16.071Z,1.76
2019-05-29T18:08:25.037Z,1.56
2019-05-29T18:13:32.245Z,1.52
2019-05-29T18:18:41.235Z,1.49
2019-05-29T18:24:02.227Z,1.60
2019-05-29T18:28:51.183Z,1.51
2019-05-29T18:34:00.108Z,1.31
2019-05-29T18:39:09.105Z,1.47
2019-05-29T18:44:18.023Z,1.43
2019-05-29T18:49:27.039Z,1.53
2019-05-29T18:54:36.004Z,1.60
2019-05-29T18:59:44.935Z,1.87
2019-05-29T19:04:53.943Z,1.75
2019-05-29T19:10:06.774Z,1.78
2019-05-29T19:15:12.903Z,1.85
2019-05-29T19:20:22.278Z,2.35
2019-05-29T19:25:31.032Z,2.66
2019-05-29T19:30:39.999Z,2.32
2019-05-29T19:35:48.964Z,2.45
2019-05-29T19:40:58.100Z,2.54
2019-05-29T19:46:07.537Z,2.41
2019-05-29T19:51:16.551Z,2.53
2019-05-29T19:56:25.620Z,2.54
2019-05-29T20:01:37.495Z,2.22
2019-05-29T20:06:42.895Z,2.60
2019-05-29T20:11:51.859Z,2.56
2019-05-29T20:17:00.797Z,2.84
2019-05-29T20:22:09.727Z,3.15
2019-05-29T20:27:18.695Z,3.22
2019-05-29T20:32:27.636Z,2.96
2019-05-29T20:37:36.606Z,3.15
2019-05-29T20:42:45.527Z,2.84
2019-05-29T20:47:54.531Z,2.54
2019-05-29T20:53:03.564Z,2.14
2019-05-29T20:58:24.110Z,2.31
2019-05-29T21:03:21.072Z,2.35
2019-05-29T21:08:30.060Z,2.24
2019-05-29T21:13:39.431Z,2.11
2019-05-29T21:18:47.412Z,2.07
2019-05-29T21:23:56.384Z,2.28
2019-05-29T21:29:05.303Z,2.22
2019-05-29T21:34:14.329Z,2.27
2019-05-29T21:39:23.248Z,2.63
2019-05-29T21:44:32.189Z,2.40
2019-05-29T21:49:41.194Z,2.50
2019-05-29T21:54:50.187Z,2.44
2019-05-29T21:59:59.142Z,2.11
2019-05-29T22:05:08.402Z,2.54
2019-05-29T22:10:18.102Z,2.81
2019-05-29T22:15:27.115Z,2.75
2019-05-29T22:20:36.026Z,2.74
2019-05-29T22:25:44.995Z,2.67
2019-05-29T22:30:55.249Z,2.74
2019-05-29T22:36:02.595Z,2.76
2019-05-29T22:41:11.534Z,2.65
2019-05-29T22:46:20.468Z,3.05
2019-05-29T22:51:29.412Z,2.71
2019-05-29T22:56:38.346Z,2.07
2019-05-29T23:01:47.327Z,2.46
2019-05-29T23:06:56.384Z,2.76
2019-05-29T23:12:05.251Z,2.55
2019-05-29T23:17:14.172Z,2.20
2019-05-29T23:22:24.619Z,2.56
2019-05-29T23:27:31.663Z,2.38
2019-05-29T23:32:40.669Z,2.22
2019-05-29T23:37:49.596Z,2.47
2019-05-29T23:42:59.464Z,2.82
2019-05-29T23:48:07.219Z,3.56
2019-05-29T23:53:16.247Z,2.95
2019-05-29T23:58:25.187Z,3.23
